createdAt,value
2022-11-25T00:00:09.919Z,0.00
2022-11-25T00:01:09.878Z,0.00
2022-11-25T00:02:09.780Z,0.00
2022-11-25T00:03:09.727Z,0.00
2022-11-25T00:04:09.574Z,0.00
2022-11-25T00:05:09.501Z,0.00
2022-11-25T00:06:09.403Z,0.00
2022-11-25T00:07:09.362Z,0.00
2022-11-25T00:08:09.233Z,0.00
2022-11-25T00:09:09.149Z,0.00
2022-11-25T00:10:09.064Z,0.00
2022-11-25T00:11:08.981Z,0.00
2022-11-25T00:12:08.893Z,0.00
2022-11-25T00:13:08.807Z,0.00
2022-11-25T00:14:08.721Z,0.00
2022-11-25T00:15:08.630Z,0.00
2022-11-25T00:16:08.637Z,0.00
2022-11-25T00:17:08.536Z,0.00
2022-11-25T00:18:08.378Z,0.00
2022-11-25T00:19:08.288Z,0.00
2022-11-25T00:20:08.200Z,0.00
2022-11-25T00:21:08.125Z,0.00
2022-11-25T00:22:08.039Z,0.00
2022-11-25T00:23:07.948Z,0.00
2022-11-25T00:24:07.858Z,0.00
2022-11-25T00:25:07.771Z,0.00
2022-11-25T00:26:07.690Z,0.00
2022-11-25T00:27:07.604Z,0.00
2022-11-25T00:28:07.517Z,0.00
2022-11-25T00:29:07.434Z,0.00
2022-11-25T00:30:07.349Z,0.00
2022-11-25T00:31:07.259Z,0.00
2022-11-25T00:32:07.231Z,0.00
2022-11-25T00:33:07.091Z,0.00
2022-11-25T00:34:07.003Z,0.00
2022-11-25T00:35:06.915Z,0.00
2022-11-25T00:36:06.833Z,0.00
2022-11-25T00:37:06.746Z,0.00
2022-11-25T00:38:06.661Z,0.00
2022-11-25T00:39:06.571Z,0.00
2022-11-25T00:40:06.490Z,0.00
2022-11-25T00:41:06.405Z,0.00
2022-11-25T00:42:06.316Z,0.00
2022-11-25T00:43:06.229Z,0.00
2022-11-25T00:44:06.148Z,0.00
2022-11-25T00:45:06.078Z,0.00
2022-11-25T00:46:06.116Z,0.00
2022-11-25T00:47:05.885Z,0.00
2022-11-25T00:48:05.805Z,0.00
2022-11-25T00:49:05.714Z,0.00
2022-11-25T00:50:05.637Z,0.00
2022-11-25T00:51:05.544Z,0.00
2022-11-25T00:52:05.463Z,0.00
2022-11-25T00:53:05.374Z,0.00
2022-11-25T00:54:05.288Z,0.00
2022-11-25T00:55:05.208Z,0.00
2022-11-25T00:56:05.115Z,0.00
2022-11-25T00:57:05.032Z,0.00
2022-11-25T00:58:04.951Z,0.00
2022-11-25T00:59:04.857Z,0.00
2022-11-25T01:00:04.774Z,0.00
2022-11-25T01:01:04.758Z,0.00
2022-11-25T01:02:04.672Z,0.00
2022-11-25T01:03:04.515Z,0.00
2022-11-25T01:04:04.430Z,0.00
2022-11-25T01:05:04.348Z,0.00
2022-11-25T01:06:04.263Z,0.00
2022-11-25T01:07:04.166Z,0.00
2022-11-25T01:08:04.087Z,0.00
2022-11-25T01:09:04.001Z,0.00
2022-11-25T01:10:03.916Z,0.00
2022-11-25T01:11:03.830Z,0.00
2022-11-25T01:12:03.743Z,0.00
2022-11-25T01:13:03.658Z,0.00
2022-11-25T01:14:03.575Z,0.00
2022-11-25T01:15:03.482Z,0.00
2022-11-25T01:16:03.418Z,0.00
2022-11-25T01:17:03.313Z,0.00
2022-11-25T01:18:03.229Z,0.00
2022-11-25T01:19:03.141Z,0.00
2022-11-25T01:20:03.056Z,0.00
2022-11-25T01:21:02.968Z,0.00
2022-11-25T01:22:02.885Z,0.00
2022-11-25T01:23:02.801Z,0.00
2022-11-25T01:24:02.717Z,0.00
2022-11-25T01:25:02.628Z,0.00
2022-11-25T01:26:02.546Z,0.00
2022-11-25T01:27:02.450Z,0.00
2022-11-25T01:28:02.368Z,0.00
2022-11-25T01:29:02.282Z,0.00
2022-11-25T01:30:02.201Z,0.00
2022-11-25T01:31:02.111Z,0.00
2022-11-25T01:32:02.073Z,0.00
2022-11-25T01:33:01.958Z,0.00
2022-11-25T01:34:01.856Z,0.00
2022-11-25T01:35:01.768Z,0.00
2022-11-25T01:36:01.682Z,0.00
2022-11-25T01:37:01.598Z,0.00
2022-11-25T01:38:01.505Z,0.00
2022-11-25T01:39:01.424Z,0.00
2022-11-25T01:40:01.333Z,0.00
2022-11-25T01:41:01.255Z,0.00
2022-11-25T01:42:01.162Z,0.00
2022-11-25T01:43:01.085Z,0.00
2022-11-25T01:44:00.993Z,0.00
2022-11-25T01:45:00.906Z,0.00
2022-11-25T01:46:00.854Z,0.00
2022-11-25T01:47:00.735Z,0.00
2022-11-25T01:48:00.648Z,0.00
2022-11-25T01:49:00.564Z,0.00
2022-11-25T01:50:00.474Z,0.00
2022-11-25T01:51:00.389Z,0.00
2022-11-25T01:52:00.303Z,0.00
2022-11-25T01:53:00.220Z,0.00
2022-11-25T01:54:00.136Z,0.00
2022-11-25T01:55:00.049Z,0.00
2022-11-25T01:55:59.960Z,0.00
2022-11-25T01:56:59.878Z,0.00
2022-11-25T01:57:59.790Z,0.00
2022-11-25T01:58:59.704Z,0.00
2022-11-25T01:59:59.614Z,0.00
2022-11-25T02:00:59.572Z,0.00
2022-11-25T02:01:59.482Z,0.00
2022-11-25T02:02:59.359Z,0.00
2022-11-25T02:03:59.272Z,0.00
2022-11-25T02:04:59.186Z,0.00
2022-11-25T02:05:59.106Z,0.00
2022-11-25T02:06:59.020Z,0.00
2022-11-25T02:07:58.973Z,0.00
2022-11-25T02:08:58.860Z,0.00
2022-11-25T02:09:58.759Z,0.00
2022-11-25T02:10:58.668Z,0.00
2022-11-25T02:11:58.585Z,0.00
2022-11-25T02:12:58.497Z,0.00
2022-11-25T02:13:58.409Z,0.00
2022-11-25T02:14:58.324Z,0.00
2022-11-25T02:15:58.237Z,0.00
2022-11-25T02:16:58.286Z,0.00
2022-11-25T02:17:58.068Z,0.00
2022-11-25T02:18:57.981Z,0.00
2022-11-25T02:19:57.895Z,0.00
2022-11-25T02:20:57.813Z,0.00
2022-11-25T02:21:57.723Z,0.00
2022-11-25T02:22:57.638Z,0.00
2022-11-25T02:23:57.549Z,0.00
2022-11-25T02:24:57.475Z,0.00
2022-11-25T02:25:57.380Z,0.00
2022-11-25T02:26:57.295Z,0.00
2022-11-25T02:27:57.207Z,0.00
2022-11-25T02:28:57.122Z,0.00
2022-11-25T02:29:57.036Z,0.00
2022-11-25T02:30:56.951Z,0.00
2022-11-25T02:31:56.932Z,0.00
2022-11-25T02:32:56.778Z,0.00
2022-11-25T02:33:56.695Z,0.00
2022-11-25T02:34:56.603Z,0.00
2022-11-25T02:35:56.519Z,0.00
2022-11-25T02:36:56.431Z,0.00
2022-11-25T02:37:56.350Z,0.00
2022-11-25T02:38:56.263Z,0.00
2022-11-25T02:39:56.177Z,0.00
2022-11-25T02:40:56.092Z,0.00
2022-11-25T02:41:56.002Z,0.00
2022-11-25T02:42:55.914Z,0.00
2022-11-25T02:43:55.832Z,0.00
2022-11-25T02:44:55.743Z,0.00
2022-11-25T02:45:55.677Z,0.00
2022-11-25T02:46:55.572Z,0.00
2022-11-25T02:47:55.485Z,0.00
2022-11-25T02:49:11.017Z,0.00
2022-11-25T02:49:55.311Z,0.00
2022-11-25T02:50:55.229Z,0.00
2022-11-25T02:51:55.151Z,0.00
2022-11-25T02:52:55.057Z,0.00
2022-11-25T02:53:54.972Z,0.00
2022-11-25T02:54:54.882Z,0.00
2022-11-25T02:55:54.798Z,0.00
2022-11-25T02:56:54.711Z,0.00
2022-11-25T02:57:54.630Z,0.00
2022-11-25T02:58:54.539Z,0.00
2022-11-25T02:59:54.456Z,0.00
2022-11-25T03:00:54.406Z,0.00
2022-11-25T03:01:54.322Z,0.00
2022-11-25T03:02:54.194Z,0.00
2022-11-25T03:03:54.104Z,0.00
2022-11-25T03:04:54.021Z,0.00
2022-11-25T03:05:53.935Z,0.00
2022-11-25T03:06:53.845Z,0.00
2022-11-25T03:07:53.831Z,0.00
2022-11-25T03:08:53.687Z,0.00
2022-11-25T03:09:53.591Z,0.00
2022-11-25T03:10:53.504Z,0.00
2022-11-25T03:11:53.416Z,0.00
2022-11-25T03:12:53.340Z,0.00
2022-11-25T03:13:53.246Z,0.00
2022-11-25T03:14:53.155Z,0.00
2022-11-25T03:15:53.070Z,0.00
2022-11-25T03:16:53.110Z,0.00
2022-11-25T03:17:52.900Z,0.00
2022-11-25T03:18:52.813Z,0.00
2022-11-25T03:19:52.727Z,0.00
2022-11-25T03:20:52.641Z,0.00
2022-11-25T03:21:52.552Z,0.00
2022-11-25T03:22:52.478Z,0.00
2022-11-25T03:23:52.382Z,0.00
2022-11-25T03:24:52.295Z,0.00
2022-11-25T03:25:52.207Z,0.00
2022-11-25T03:26:52.121Z,0.00
2022-11-25T03:27:52.040Z,0.00
2022-11-25T03:28:51.953Z,0.00
2022-11-25T03:29:51.866Z,0.00
2022-11-25T03:30:51.783Z,0.00
2022-11-25T03:31:51.747Z,0.00
2022-11-25T03:32:51.604Z,0.00
2022-11-25T03:33:51.523Z,0.00
2022-11-25T03:34:51.434Z,0.00
2022-11-25T03:35:51.347Z,0.00
2022-11-25T03:36:51.305Z,0.00
2022-11-25T03:37:51.170Z,0.00
2022-11-25T03:38:51.092Z,0.00
2022-11-25T03:39:51.006Z,0.00
2022-11-25T03:40:50.913Z,0.00
2022-11-25T03:41:50.831Z,0.00
2022-11-25T03:42:50.745Z,0.00
2022-11-25T03:43:50.655Z,0.00
2022-11-25T03:44:50.573Z,0.00
2022-11-25T03:45:50.540Z,0.00
2022-11-25T03:46:50.395Z,0.00
2022-11-25T03:47:50.315Z,0.00
2022-11-25T03:48:50.223Z,0.00
2022-11-25T03:49:50.139Z,0.00
2022-11-25T03:50:50.052Z,0.00
2022-11-25T03:51:49.966Z,0.00
2022-11-25T03:52:49.878Z,0.00
2022-11-25T03:53:49.794Z,0.00
2022-11-25T03:54:49.706Z,0.00
2022-11-25T03:55:49.616Z,0.00
2022-11-25T03:56:49.533Z,0.00
2022-11-25T03:57:49.449Z,0.00
2022-11-25T03:58:49.363Z,0.00
2022-11-25T03:59:49.272Z,0.00
2022-11-25T04:00:49.193Z,0.00
2022-11-25T04:01:49.127Z,0.00
2022-11-25T04:02:49.106Z,0.00
2022-11-25T04:03:48.929Z,0.00
2022-11-25T04:04:48.843Z,0.00
2022-11-25T04:05:48.751Z,0.00
2022-11-25T04:06:48.664Z,0.00
2022-11-25T04:07:51.238Z,0.00
2022-11-25T04:08:48.494Z,0.00
2022-11-25T04:09:48.417Z,0.00
2022-11-25T04:10:48.324Z,0.00
2022-11-25T04:11:48.235Z,0.00
2022-11-25T04:12:48.151Z,0.00
2022-11-25T04:13:48.060Z,0.00
2022-11-25T04:14:47.985Z,0.00
2022-11-25T04:15:47.896Z,0.00
2022-11-25T04:16:47.860Z,0.00
2022-11-25T04:17:47.729Z,0.00
2022-11-25T04:18:47.635Z,0.00
2022-11-25T04:19:47.550Z,0.00
2022-11-25T04:20:47.465Z,0.00
2022-11-25T04:21:52.115Z,0.00
2022-11-25T04:22:47.285Z,0.00
2022-11-25T04:23:47.194Z,0.00
2022-11-25T04:24:47.111Z,0.00
2022-11-25T04:25:47.024Z,0.00
2022-11-25T04:26:46.939Z,0.00
2022-11-25T04:27:46.851Z,0.00
2022-11-25T04:28:46.764Z,0.00
2022-11-25T04:29:46.683Z,0.00
2022-11-25T04:30:46.633Z,0.00
2022-11-25T04:31:46.507Z,0.00
2022-11-25T04:32:46.420Z,0.00
2022-11-25T04:33:51.189Z,0.00
2022-11-25T04:34:46.245Z,0.00
2022-11-25T04:35:46.162Z,0.00
2022-11-25T04:36:46.076Z,0.00
2022-11-25T04:37:45.987Z,0.00
2022-11-25T04:38:45.901Z,0.00
2022-11-25T04:39:45.817Z,0.00
2022-11-25T04:40:45.725Z,0.00
2022-11-25T04:41:45.638Z,0.00
2022-11-25T04:42:45.563Z,0.00
2022-11-25T04:43:45.470Z,0.00
2022-11-25T04:45:01.096Z,0.00
2022-11-25T04:46:12.481Z,0.00
2022-11-25T04:46:45.257Z,0.00
2022-11-25T04:47:45.122Z,0.00
2022-11-25T04:48:45.039Z,0.00
2022-11-25T04:49:44.950Z,0.00
2022-11-25T04:50:44.862Z,0.00
2022-11-25T04:51:44.776Z,0.00
2022-11-25T04:52:44.693Z,0.00
2022-11-25T04:53:44.603Z,0.00
2022-11-25T04:54:44.516Z,0.00
2022-11-25T04:55:44.428Z,0.00
2022-11-25T04:56:44.348Z,0.00
2022-11-25T04:57:44.258Z,0.00
2022-11-25T04:58:44.173Z,0.00
2022-11-25T04:59:44.094Z,0.00
2022-11-25T05:00:43.996Z,0.00
2022-11-25T05:01:43.958Z,0.00
2022-11-25T05:02:43.894Z,0.00
2022-11-25T05:03:49.593Z,0.00
2022-11-25T05:04:43.654Z,0.00
2022-11-25T05:05:43.565Z,0.00
2022-11-25T05:06:43.474Z,0.00
2022-11-25T05:07:43.438Z,0.00
2022-11-25T05:08:43.307Z,0.00
2022-11-25T05:09:43.225Z,0.00
2022-11-25T05:10:43.128Z,0.00
2022-11-25T05:11:43.046Z,0.00
2022-11-25T05:12:42.963Z,0.00
2022-11-25T05:13:42.876Z,0.00
2022-11-25T05:14:42.793Z,0.00
2022-11-25T05:15:42.696Z,0.00
2022-11-25T05:16:42.692Z,0.00
2022-11-25T05:17:42.528Z,0.00
2022-11-25T05:18:42.443Z,0.00
2022-11-25T05:19:42.353Z,0.00
2022-11-25T05:20:42.274Z,0.00
2022-11-25T05:21:42.181Z,0.00
2022-11-25T05:22:42.101Z,0.00
2022-11-25T05:23:42.006Z,0.00
2022-11-25T05:24:41.922Z,0.00
2022-11-25T05:25:41.830Z,0.00
2022-11-25T05:26:41.749Z,0.00
2022-11-25T05:27:41.660Z,0.00
2022-11-25T05:28:41.570Z,0.00
2022-11-25T05:29:41.490Z,0.00
2022-11-25T05:30:41.548Z,0.00
2022-11-25T05:31:41.311Z,0.00
2022-11-25T05:32:41.223Z,0.00
2022-11-25T05:33:41.139Z,0.00
2022-11-25T05:34:41.052Z,0.00
2022-11-25T05:35:40.966Z,0.00
2022-11-25T05:36:40.885Z,0.00
2022-11-25T05:37:40.788Z,0.00
2022-11-25T05:38:40.717Z,0.00
2022-11-25T05:39:40.625Z,0.00
2022-11-25T05:40:40.534Z,0.00
2022-11-25T05:41:40.445Z,0.00
2022-11-25T05:42:40.359Z,0.00
2022-11-25T05:43:40.269Z,0.00
2022-11-25T05:44:40.188Z,0.00
2022-11-25T05:45:40.142Z,0.00
2022-11-25T05:46:40.011Z,0.00
2022-11-25T05:47:39.932Z,0.00
2022-11-25T05:48:39.841Z,0.00
2022-11-25T05:49:39.752Z,0.00
2022-11-25T05:50:39.666Z,0.00
2022-11-25T05:51:39.578Z,0.00
2022-11-25T05:52:39.490Z,0.00
2022-11-25T05:53:39.406Z,0.00
2022-11-25T05:54:39.351Z,0.00
2022-11-25T05:55:39.232Z,0.00
2022-11-25T05:56:39.139Z,0.00
2022-11-25T05:57:39.058Z,0.00
2022-11-25T05:58:38.972Z,0.00
2022-11-25T05:59:38.885Z,0.00
2022-11-25T06:00:38.799Z,0.00
2022-11-25T06:01:38.717Z,0.00
2022-11-25T06:02:38.735Z,0.00
2022-11-25T06:03:38.548Z,0.00
2022-11-25T06:04:38.889Z,0.00
2022-11-25T06:05:38.379Z,0.00
2022-11-25T06:06:38.274Z,0.00
2022-11-25T06:07:38.243Z,0.00
2022-11-25T06:08:38.104Z,0.00
2022-11-25T06:09:38.019Z,0.00
2022-11-25T06:10:37.930Z,0.00
2022-11-25T06:11:37.860Z,0.00
2022-11-25T06:12:37.757Z,0.00
2022-11-25T06:13:37.672Z,0.00
2022-11-25T06:14:37.810Z,0.00
2022-11-25T06:15:37.527Z,0.00
2022-11-25T06:16:37.414Z,4.00
2022-11-25T06:17:37.323Z,0.00
2022-11-25T06:18:37.239Z,0.00
2022-11-25T06:19:37.153Z,0.00
2022-11-25T06:20:37.067Z,0.00
2022-11-25T06:21:36.980Z,4.00
2022-11-25T06:22:36.885Z,0.00
2022-11-25T06:23:36.803Z,0.00
2022-11-25T06:24:36.978Z,0.00
2022-11-25T06:25:36.633Z,4.00
2022-11-25T06:26:36.540Z,4.00
2022-11-25T06:28:04.489Z,4.00
2022-11-25T06:28:36.368Z,4.00
2022-11-25T06:29:36.284Z,4.00
2022-11-25T06:30:36.192Z,4.00
2022-11-25T06:31:36.186Z,4.00
2022-11-25T06:32:37.575Z,8.00
2022-11-25T06:33:35.938Z,8.00
2022-11-25T06:34:36.147Z,8.00
2022-11-25T06:35:35.761Z,8.00
2022-11-25T06:36:35.676Z,8.00
2022-11-25T06:37:35.590Z,12.00
2022-11-25T06:38:35.497Z,12.00
2022-11-25T06:39:35.414Z,12.00
2022-11-25T06:40:35.334Z,12.00
2022-11-25T06:41:35.241Z,12.00
2022-11-25T06:42:35.153Z,16.00
2022-11-25T06:43:35.069Z,16.00
2022-11-25T06:44:35.234Z,16.00
2022-11-25T06:45:34.897Z,20.00
2022-11-25T06:46:34.819Z,24.00
2022-11-25T06:47:34.720Z,24.00
2022-11-25T06:48:34.631Z,24.00
2022-11-25T06:49:34.556Z,24.00
2022-11-25T06:50:34.461Z,28.00
2022-11-25T06:51:34.373Z,28.00
2022-11-25T06:52:34.286Z,32.00
2022-11-25T06:53:34.198Z,32.00
2022-11-25T06:54:34.426Z,36.00
2022-11-25T06:55:34.025Z,40.00
2022-11-25T06:56:33.939Z,40.00
2022-11-25T06:57:33.852Z,44.00
2022-11-25T06:58:36.140Z,48.00
2022-11-25T06:59:33.680Z,52.00
2022-11-25T07:00:33.594Z,52.00
2022-11-25T07:01:33.566Z,56.00
2022-11-25T07:02:40.724Z,56.00
2022-11-25T07:03:33.334Z,64.00
2022-11-25T07:04:33.397Z,64.00
2022-11-25T07:05:33.157Z,64.00
2022-11-25T07:06:33.075Z,68.00
2022-11-25T07:07:33.050Z,68.00
2022-11-25T07:08:34.388Z,72.00
2022-11-25T07:09:32.819Z,76.00
2022-11-25T07:10:32.740Z,80.00
2022-11-25T07:11:32.640Z,76.00
2022-11-25T07:12:32.551Z,76.00
2022-11-25T07:13:32.469Z,80.00
2022-11-25T07:14:32.383Z,80.00
2022-11-25T07:15:32.362Z,80.00
2022-11-25T07:16:32.206Z,88.00
2022-11-25T07:17:32.120Z,88.00
2022-11-25T07:18:32.038Z,92.00
2022-11-25T07:19:31.951Z,96.00
2022-11-25T07:20:31.856Z,100.00
2022-11-25T07:21:31.775Z,104.00
2022-11-25T07:22:31.686Z,104.00
2022-11-25T07:23:31.597Z,112.00
2022-11-25T07:24:31.514Z,116.00
2022-11-25T07:25:31.428Z,116.00
2022-11-25T07:26:31.345Z,120.00
2022-11-25T07:27:31.257Z,120.00
2022-11-25T07:28:31.169Z,120.00
2022-11-25T07:31:33.573Z,128.00
2022-11-25T07:32:30.821Z,132.00
2022-11-25T07:33:30.795Z,136.00
2022-11-25T07:34:30.650Z,140.00
2022-11-25T07:35:30.565Z,144.00
2022-11-25T07:36:30.480Z,144.00
2022-11-25T07:37:30.395Z,144.00
2022-11-25T07:38:30.303Z,152.00
2022-11-25T07:39:30.221Z,156.00
2022-11-25T07:40:30.129Z,156.00
2022-11-25T07:41:30.050Z,160.00
2022-11-25T07:42:29.955Z,160.00
2022-11-25T07:43:29.873Z,164.00
2022-11-25T07:44:29.782Z,164.00
2022-11-25T07:45:29.695Z,168.00
2022-11-25T07:46:29.647Z,172.00
2022-11-25T07:47:29.526Z,176.00
2022-11-25T07:48:29.433Z,180.00
2022-11-25T07:49:29.352Z,184.00
2022-11-25T07:50:29.263Z,188.00
2022-11-25T07:51:29.176Z,192.00
2022-11-25T07:52:29.089Z,192.00
2022-11-25T07:53:29.013Z,196.00
2022-11-25T07:54:28.923Z,204.00
2022-11-25T07:55:28.830Z,220.00
2022-11-25T07:56:28.743Z,220.00
2022-11-25T07:57:28.666Z,228.00
2022-11-25T07:58:28.569Z,244.00
2022-11-25T07:59:28.483Z,256.00
2022-11-25T08:00:28.406Z,348.00
2022-11-25T08:01:28.360Z,620.00
2022-11-25T08:02:28.314Z,724.00
2022-11-25T08:03:28.143Z,716.00
2022-11-25T08:04:28.058Z,612.00
2022-11-25T08:05:27.971Z,1016.00
2022-11-25T08:06:27.879Z,1104.00
2022-11-25T08:07:31.879Z,1096.00
2022-11-25T08:08:27.707Z,1100.00
2022-11-25T08:09:27.625Z,1116.00
2022-11-25T08:10:27.533Z,1136.00
2022-11-25T08:11:27.447Z,1160.00
2022-11-25T08:12:27.363Z,1168.00
2022-11-25T08:13:27.278Z,1180.00
2022-11-25T08:14:27.193Z,1196.00
2022-11-25T08:15:27.113Z,1204.00
2022-11-25T08:16:27.113Z,1216.00
2022-11-25T08:17:26.932Z,1236.00
2022-11-25T08:18:26.848Z,1240.00
2022-11-25T08:19:31.269Z,1244.00
2022-11-25T08:20:26.676Z,1268.00
2022-11-25T08:21:26.593Z,1276.00
2022-11-25T08:22:26.508Z,1268.00
2022-11-25T08:23:26.421Z,1288.00
2022-11-25T08:24:26.336Z,1296.00
2022-11-25T08:25:26.248Z,1308.00
2022-11-25T08:26:26.163Z,1320.00
2022-11-25T08:27:26.083Z,1324.00
2022-11-25T08:28:26.004Z,1312.00
2022-11-25T08:29:25.909Z,1244.00
2022-11-25T08:30:25.840Z,1352.00
2022-11-25T08:31:25.850Z,1240.00
2022-11-25T08:32:25.662Z,1212.00
2022-11-25T08:33:25.573Z,1300.00
2022-11-25T08:34:25.485Z,1316.00
2022-11-25T08:35:25.403Z,1340.00
2022-11-25T08:36:25.317Z,1364.00
2022-11-25T08:37:25.233Z,1388.00
2022-11-25T08:38:25.153Z,1408.00
2022-11-25T08:40:24.982Z,1440.00
2022-11-25T08:41:24.891Z,1212.00
2022-11-25T08:42:24.809Z,1008.00
2022-11-25T08:43:29.166Z,932.00
2022-11-25T08:44:24.641Z,804.00
2022-11-25T08:45:24.560Z,1112.00
2022-11-25T08:46:24.538Z,1500.00
2022-11-25T08:47:24.392Z,1500.00
2022-11-25T08:48:24.765Z,1508.00
2022-11-25T08:49:24.216Z,1516.00
2022-11-25T08:50:24.130Z,1512.00
2022-11-25T08:51:24.048Z,1512.00
2022-11-25T08:52:23.966Z,1528.00
2022-11-25T08:53:23.880Z,1524.00
2022-11-25T08:54:23.797Z,1532.00
2022-11-25T08:55:23.716Z,1540.00
2022-11-25T08:56:26.230Z,1548.00
2022-11-25T08:57:23.551Z,1548.00
2022-11-25T08:58:23.466Z,1556.00
2022-11-25T08:59:23.379Z,1560.00
2022-11-25T09:00:23.308Z,1560.00
2022-11-25T09:01:23.310Z,1576.00
2022-11-25T09:02:23.174Z,1580.00
2022-11-25T09:03:23.083Z,1584.00
2022-11-25T09:04:22.971Z,1592.00
2022-11-25T09:05:22.875Z,1604.00
2022-11-25T09:06:22.786Z,1608.00
2022-11-25T09:07:27.552Z,1612.00
2022-11-25T09:08:22.621Z,1628.00
2022-11-25T09:09:22.539Z,1636.00
2022-11-25T09:10:22.524Z,1640.00
2022-11-25T09:11:22.393Z,1652.00
2022-11-25T09:12:22.287Z,1652.00
2022-11-25T09:13:22.204Z,1668.00
2022-11-25T09:14:22.184Z,1680.00
2022-11-25T09:15:22.034Z,1688.00
2022-11-25T09:16:22.005Z,1716.00
2022-11-25T09:17:21.871Z,1732.00
2022-11-25T09:18:21.788Z,1752.00
2022-11-25T09:19:21.707Z,1768.00
2022-11-25T09:20:21.674Z,1784.00
2022-11-25T09:21:21.538Z,1796.00
2022-11-25T09:22:21.454Z,1776.00
2022-11-25T09:23:21.368Z,1912.00
2022-11-25T09:24:21.291Z,2008.00
2022-11-25T09:25:21.204Z,908.00
2022-11-25T09:26:21.123Z,1396.00
2022-11-25T09:27:21.040Z,2104.00
2022-11-25T09:28:20.954Z,2348.00
2022-11-25T09:29:20.874Z,2492.00
2022-11-25T09:30:20.845Z,2560.00
2022-11-25T09:31:20.803Z,1532.00
2022-11-25T09:32:20.623Z,704.00
2022-11-25T09:33:20.540Z,632.00
2022-11-25T09:34:20.456Z,616.00
2022-11-25T09:35:20.377Z,652.00
2022-11-25T09:36:20.291Z,692.00
2022-11-25T09:37:20.210Z,660.00
2022-11-25T09:38:20.125Z,624.00
2022-11-25T09:39:20.042Z,556.00
2022-11-25T09:40:19.974Z,512.00
2022-11-25T09:41:19.881Z,504.00
2022-11-25T09:42:19.798Z,528.00
2022-11-25T09:43:19.714Z,792.00
2022-11-25T09:44:19.629Z,560.00
2022-11-25T09:45:19.551Z,544.00
2022-11-25T09:46:19.542Z,508.00
2022-11-25T09:47:19.379Z,552.00
2022-11-25T09:48:19.300Z,704.00
2022-11-25T09:49:19.222Z,868.00
2022-11-25T09:50:19.133Z,2556.00
2022-11-25T09:51:19.052Z,3724.00
2022-11-25T09:52:18.973Z,3532.00
2022-11-25T09:53:18.885Z,3468.00
2022-11-25T09:54:18.807Z,3548.00
2022-11-25T09:55:18.723Z,3700.00
2022-11-25T09:56:18.637Z,4056.00
2022-11-25T09:57:18.558Z,4160.00
2022-11-25T09:58:18.487Z,3760.00
2022-11-25T09:59:18.392Z,3156.00
2022-11-25T10:00:18.311Z,2808.00
2022-11-25T10:01:18.238Z,2676.00
2022-11-25T10:02:18.248Z,2512.00
2022-11-25T10:03:18.137Z,2040.00
2022-11-25T10:04:17.991Z,1240.00
2022-11-25T10:05:17.905Z,756.00
2022-11-25T10:06:17.865Z,800.00
2022-11-25T10:07:17.739Z,872.00
2022-11-25T10:08:17.661Z,956.00
2022-11-25T10:09:17.580Z,2288.00
2022-11-25T10:10:17.495Z,2408.00
2022-11-25T10:11:17.420Z,2188.00
2022-11-25T10:12:17.332Z,2332.00
2022-11-25T10:13:17.250Z,2292.00
2022-11-25T10:14:17.169Z,2252.00
2022-11-25T10:15:17.097Z,2316.00
2022-11-25T10:16:17.068Z,2168.00
2022-11-25T10:17:16.938Z,2324.00
2022-11-25T10:18:16.843Z,2284.00
2022-11-25T10:19:16.758Z,2236.00
2022-11-25T10:20:16.682Z,2220.00
2022-11-25T10:21:16.601Z,2192.00
2022-11-25T10:22:16.518Z,2180.00
2022-11-25T10:23:16.439Z,2144.00
2022-11-25T10:24:16.358Z,2104.00
2022-11-25T10:25:16.268Z,2072.00
2022-11-25T10:26:16.187Z,2052.00
2022-11-25T10:27:16.108Z,2032.00
2022-11-25T10:28:16.029Z,2012.00
2022-11-25T10:29:15.947Z,2044.00
2022-11-25T10:30:15.864Z,2044.00
2022-11-25T10:31:15.813Z,2064.00
2022-11-25T10:32:15.705Z,1084.00
2022-11-25T10:33:15.621Z,708.00
2022-11-25T10:34:15.538Z,1468.00
2022-11-25T10:35:15.461Z,648.00
2022-11-25T10:36:15.377Z,608.00
2022-11-25T10:37:15.292Z,464.00
2022-11-25T10:38:18.956Z,456.00
2022-11-25T10:39:15.140Z,464.00
2022-11-25T10:40:15.051Z,540.00
2022-11-25T10:41:14.974Z,664.00
2022-11-25T10:42:14.889Z,672.00
2022-11-25T10:43:14.804Z,712.00
2022-11-25T10:44:14.730Z,644.00
2022-11-25T10:45:14.646Z,700.00
2022-11-25T10:46:14.639Z,896.00
2022-11-25T10:47:15.241Z,992.00
2022-11-25T10:48:14.399Z,712.00
2022-11-25T10:49:14.323Z,708.00
2022-11-25T10:50:14.239Z,616.00
2022-11-25T10:51:14.155Z,620.00
2022-11-25T10:52:14.084Z,620.00
2022-11-25T10:53:14.000Z,688.00
2022-11-25T10:54:13.913Z,768.00
2022-11-25T10:55:13.831Z,668.00
2022-11-25T10:56:13.753Z,656.00
2022-11-25T10:57:13.674Z,648.00
2022-11-25T10:58:13.587Z,624.00
2022-11-25T10:59:13.508Z,552.00
2022-11-25T11:00:17.227Z,512.00
2022-11-25T11:01:13.342Z,476.00
2022-11-25T11:02:13.318Z,452.00
2022-11-25T11:03:13.232Z,428.00
2022-11-25T11:04:13.100Z,412.00
2022-11-25T11:05:13.015Z,400.00
2022-11-25T11:06:12.945Z,392.00
2022-11-25T11:07:12.897Z,392.00
2022-11-25T11:08:12.778Z,392.00
2022-11-25T11:09:12.687Z,396.00
2022-11-25T11:10:12.611Z,404.00
2022-11-25T11:11:12.525Z,416.00
2022-11-25T11:12:12.448Z,432.00
2022-11-25T11:13:12.362Z,448.00
2022-11-25T11:14:12.287Z,476.00
2022-11-25T11:15:12.196Z,464.00
2022-11-25T11:16:12.168Z,468.00
2022-11-25T11:17:12.036Z,684.00
2022-11-25T11:18:11.956Z,444.00
2022-11-25T11:19:11.874Z,424.00
2022-11-25T11:20:11.791Z,412.00
2022-11-25T11:21:11.710Z,404.00
2022-11-25T11:22:11.634Z,400.00
2022-11-25T11:23:11.551Z,392.00
2022-11-25T11:24:11.463Z,388.00
2022-11-25T11:25:11.383Z,384.00
2022-11-25T11:26:11.302Z,388.00
2022-11-25T11:27:11.220Z,400.00
2022-11-25T11:28:11.140Z,420.00
2022-11-25T11:29:14.081Z,448.00
2022-11-25T11:30:10.972Z,480.00
2022-11-25T11:31:10.955Z,512.00
2022-11-25T11:32:10.811Z,544.00
2022-11-25T11:33:10.725Z,576.00
2022-11-25T11:34:10.645Z,604.00
2022-11-25T11:35:10.566Z,644.00
2022-11-25T11:36:10.483Z,808.00
2022-11-25T11:37:10.401Z,740.00
2022-11-25T11:38:10.315Z,780.00
2022-11-25T11:39:10.233Z,984.00
2022-11-25T11:40:10.156Z,1072.00
2022-11-25T11:41:10.072Z,1008.00
2022-11-25T11:42:09.990Z,1436.00
2022-11-25T11:43:09.907Z,1612.00
2022-11-25T11:44:09.832Z,1568.00
2022-11-25T11:45:09.748Z,1544.00
2022-11-25T11:46:09.726Z,1372.00
2022-11-25T11:47:09.640Z,1936.00
2022-11-25T11:48:09.498Z,1980.00
2022-11-25T11:49:09.419Z,2072.00
2022-11-25T11:50:09.339Z,1432.00
2022-11-25T11:51:09.253Z,1740.00
2022-11-25T11:52:09.178Z,1188.00
2022-11-25T11:53:09.094Z,1144.00
2022-11-25T11:54:09.014Z,1112.00
2022-11-25T11:55:08.932Z,1072.00
2022-11-25T11:56:36.521Z,1196.00
2022-11-25T11:57:08.766Z,1532.00
2022-11-25T11:58:08.687Z,1496.00
2022-11-25T11:59:08.604Z,1368.00
2022-11-25T12:00:08.536Z,1048.00
2022-11-25T12:01:08.447Z,756.00
2022-11-25T12:02:08.402Z,608.00
2022-11-25T12:03:08.347Z,564.00
2022-11-25T12:04:08.201Z,512.00
2022-11-25T12:05:08.118Z,480.00
2022-11-25T12:06:08.033Z,448.00
2022-11-25T12:07:08.017Z,384.00
2022-11-25T12:08:07.879Z,348.00
2022-11-25T12:09:07.792Z,316.00
2022-11-25T12:10:07.716Z,284.00
2022-11-25T12:11:07.635Z,260.00
2022-11-25T12:12:07.552Z,268.00
2022-11-25T12:13:07.470Z,232.00
2022-11-25T12:14:07.386Z,224.00
2022-11-25T12:15:07.307Z,216.00
2022-11-25T12:16:07.310Z,212.00
2022-11-25T12:17:07.144Z,208.00
2022-11-25T12:18:07.062Z,204.00
2022-11-25T12:19:06.978Z,204.00
2022-11-25T12:20:06.901Z,204.00
2022-11-25T12:21:06.815Z,200.00
2022-11-25T12:22:06.757Z,204.00
2022-11-25T12:23:06.659Z,204.00
2022-11-25T12:24:06.577Z,208.00
2022-11-25T12:25:06.492Z,204.00
2022-11-25T12:26:06.409Z,204.00
2022-11-25T12:27:06.339Z,204.00
2022-11-25T12:28:06.253Z,204.00
2022-11-25T12:29:06.170Z,200.00
2022-11-25T12:30:06.092Z,196.00
2022-11-25T12:31:06.155Z,192.00
2022-11-25T12:32:06.015Z,184.00
2022-11-25T12:33:05.842Z,180.00
2022-11-25T12:34:05.762Z,176.00
2022-11-25T12:35:05.681Z,172.00
2022-11-25T12:36:05.596Z,180.00
2022-11-25T12:37:07.463Z,176.00
2022-11-25T12:38:05.433Z,180.00
2022-11-25T12:39:05.358Z,184.00
2022-11-25T12:40:05.276Z,180.00
2022-11-25T12:41:05.192Z,176.00
2022-11-25T12:42:05.112Z,168.00
2022-11-25T12:43:05.033Z,160.00
2022-11-25T12:44:04.952Z,152.00
2022-11-25T12:45:04.865Z,148.00
2022-11-25T12:46:04.831Z,144.00
2022-11-25T12:47:04.704Z,148.00
2022-11-25T12:48:04.633Z,152.00
2022-11-25T12:49:04.538Z,164.00
2022-11-25T12:50:04.466Z,176.00
2022-11-25T12:51:04.380Z,180.00
2022-11-25T12:52:04.302Z,184.00